createdAt,value
2018-11-23T00:01:45.362Z,1.70
2018-11-23T00:04:12.805Z,1.90
2018-11-23T00:06:40.227Z,1.90
2018-11-23T00:09:07.674Z,1.90
2018-11-23T00:11:35.062Z,1.60
2018-11-23T00:14:02.471Z,1.60
2018-11-23T00:16:29.842Z,1.80
2018-11-23T00:18:57.306Z,1.80
2018-11-23T00:21:24.677Z,1.90
2018-11-23T00:23:52.106Z,1.80
2018-11-23T00:26:19.498Z,1.80
2018-11-23T00:28:46.894Z,2.00
2018-11-23T00:31:14.357Z,1.90
2018-11-23T00:33:41.774Z,1.90
2018-11-23T00:36:09.127Z,1.80
2018-11-23T00:38:36.574Z,1.70
2018-11-23T00:41:04.515Z,1.80
2018-11-23T00:43:31.902Z,1.80
2018-11-23T00:45:59.299Z,1.80
2018-11-23T00:48:26.739Z,1.80
2018-11-23T00:50:54.119Z,2.00
2018-11-23T00:53:21.529Z,2.00
2018-11-23T00:55:48.950Z,2.00
2018-11-23T00:58:16.319Z,1.90
2018-11-23T01:00:43.843Z,1.80
2018-11-23T01:03:11.289Z,1.60
2018-11-23T01:05:38.775Z,1.70
2018-11-23T01:08:06.211Z,1.80
2018-11-23T01:10:33.704Z,1.70
2018-11-23T01:13:01.183Z,1.70
2018-11-23T01:15:28.675Z,1.80
2018-11-23T01:17:56.074Z,1.70
2018-11-23T01:20:24.881Z,1.70
2018-11-23T01:22:52.915Z,1.90
2018-11-23T01:25:21.322Z,1.80
2018-11-23T01:27:49.889Z,1.80
2018-11-23T01:30:24.719Z,1.70
2018-11-23T01:32:52.149Z,1.80
2018-11-23T01:35:19.535Z,1.80
2018-11-23T01:37:47.013Z,1.80
2018-11-23T01:40:16.911Z,1.70
2018-11-23T01:42:44.659Z,1.70
2018-11-23T01:45:12.689Z,1.80
2018-11-23T01:47:40.120Z,1.70
2018-11-23T01:50:09.867Z,1.70
2018-11-23T01:52:37.280Z,1.80
2018-11-23T01:55:06.218Z,1.90
2018-11-23T01:57:33.632Z,1.80
2018-11-23T02:00:01.016Z,1.70
2018-11-23T02:02:28.450Z,1.60
2018-11-23T02:04:55.888Z,1.70
2018-11-23T02:07:23.515Z,1.60
2018-11-23T02:09:50.871Z,1.80
2018-11-23T02:12:18.319Z,1.80
2018-11-23T02:14:45.736Z,1.70
2018-11-23T02:17:13.100Z,1.60
2018-11-23T02:19:40.550Z,1.50
2018-11-23T02:22:07.963Z,1.60
2018-11-23T02:24:35.424Z,1.70
2018-11-23T02:27:02.838Z,1.60
2018-11-23T02:29:30.207Z,1.60
2018-11-23T02:31:57.603Z,1.80
2018-11-23T02:34:25.008Z,1.70
2018-11-23T02:36:52.436Z,1.80
2018-11-23T02:39:19.892Z,1.70
2018-11-23T02:41:47.254Z,1.50
2018-11-23T02:44:14.718Z,1.50
2018-11-23T02:46:42.121Z,1.60
2018-11-23T02:49:09.517Z,1.80
2018-11-23T02:51:36.941Z,1.50
2018-11-23T02:54:04.430Z,1.70
2018-11-23T02:56:39.700Z,1.60
2018-11-23T02:59:07.154Z,1.80
2018-11-23T03:01:34.534Z,1.60
2018-11-23T03:04:01.929Z,1.50
2018-11-23T03:06:29.335Z,1.50
2018-11-23T03:08:56.765Z,1.60
2018-11-23T03:11:24.146Z,1.70
2018-11-23T03:13:51.532Z,1.70
2018-11-23T03:16:18.919Z,1.70
2018-11-23T03:18:46.299Z,1.80
2018-11-23T03:21:13.714Z,1.70
2018-11-23T03:23:41.054Z,1.70
2018-11-23T03:26:08.443Z,1.60
2018-11-23T03:28:35.829Z,1.70
2018-11-23T03:31:03.251Z,1.60
2018-11-23T03:33:30.618Z,1.70
2018-11-23T03:35:58.003Z,1.60
2018-11-23T03:38:25.359Z,1.50
2018-11-23T03:40:52.808Z,1.60
2018-11-23T03:43:20.199Z,1.80
2018-11-23T03:45:47.555Z,1.80
2018-11-23T03:48:14.975Z,1.60
2018-11-23T03:50:42.390Z,1.60
2018-11-23T03:53:09.747Z,1.60
2018-11-23T03:55:37.162Z,1.70
2018-11-23T03:58:04.906Z,1.80
2018-11-23T04:00:32.308Z,1.90
2018-11-23T04:02:59.734Z,1.70
2018-11-23T04:05:27.115Z,1.60
2018-11-23T04:07:54.560Z,1.50
2018-11-23T04:10:21.916Z,1.60
2018-11-23T04:12:49.331Z,1.80
2018-11-23T04:15:16.863Z,1.80
2018-11-23T04:17:44.222Z,1.70
2018-11-23T04:20:13.031Z,1.70
2018-11-23T04:22:41.141Z,1.80
2018-11-23T04:25:08.765Z,1.70
2018-11-23T04:27:36.194Z,1.70
2018-11-23T04:30:04.517Z,1.60
2018-11-23T04:32:31.937Z,1.60
2018-11-23T04:34:59.340Z,1.70
2018-11-23T04:37:26.765Z,1.60
2018-11-23T04:39:54.122Z,1.50
2018-11-23T04:42:21.550Z,1.60
2018-11-23T04:44:48.921Z,1.70
2018-11-23T04:47:16.336Z,1.60
2018-11-23T04:49:43.708Z,1.50
2018-11-23T04:52:11.110Z,1.60
2018-11-23T04:54:38.539Z,1.60
2018-11-23T04:57:06.069Z,1.70
2018-11-23T04:59:33.476Z,1.60
2018-11-23T05:02:00.931Z,1.60
2018-11-23T05:04:28.348Z,1.60
2018-11-23T05:06:55.872Z,1.60
2018-11-23T05:09:23.280Z,1.60
2018-11-23T05:11:50.672Z,1.70
2018-11-23T05:14:18.116Z,1.70
2018-11-23T05:16:45.548Z,1.60
2018-11-23T05:19:12.995Z,1.60
2018-11-23T05:21:40.409Z,1.80
2018-11-23T05:24:07.855Z,1.70
2018-11-23T05:26:35.294Z,1.50
2018-11-23T05:29:02.736Z,1.70
2018-11-23T05:31:30.140Z,1.70
2018-11-23T05:33:57.589Z,1.60
2018-11-23T05:36:25.020Z,1.70
2018-11-23T05:38:52.447Z,1.50
2018-11-23T05:41:19.855Z,1.50
2018-11-23T05:43:47.316Z,1.60
2018-11-23T05:46:14.700Z,1.70
2018-11-23T05:48:42.157Z,1.60
2018-11-23T05:51:09.946Z,1.50
2018-11-23T05:53:37.479Z,1.50
2018-11-23T05:56:05.207Z,1.50
2018-11-23T05:58:32.664Z,1.70
2018-11-23T06:01:00.187Z,1.80
2018-11-23T06:03:27.636Z,1.70
2018-11-23T06:05:55.045Z,1.50
2018-11-23T06:08:22.491Z,1.40
2018-11-23T06:10:49.888Z,1.40
2018-11-23T06:13:17.336Z,1.60
2018-11-23T06:15:45.849Z,1.70
2018-11-23T06:18:12.223Z,1.70
2018-11-23T06:20:39.671Z,1.80
2018-11-23T06:23:07.407Z,1.80
2018-11-23T06:25:37.774Z,1.70
2018-11-23T06:28:05.378Z,1.60
2018-11-23T06:30:32.774Z,1.70
2018-11-23T06:33:11.966Z,1.60
2018-11-23T06:35:39.391Z,1.60
2018-11-23T06:38:06.836Z,1.70
2018-11-23T06:40:34.263Z,1.60
2018-11-23T06:43:01.719Z,1.60
2018-11-23T06:45:30.555Z,1.70
2018-11-23T06:47:58.012Z,1.80
2018-11-23T06:50:25.437Z,1.60
2018-11-23T06:52:52.825Z,1.70
2018-11-23T06:55:21.169Z,1.60
2018-11-23T06:57:48.613Z,1.50
2018-11-23T07:00:23.087Z,1.70
2018-11-23T07:02:50.474Z,1.70
2018-11-23T07:05:17.923Z,1.60
2018-11-23T07:07:45.317Z,1.80
2018-11-23T07:10:12.774Z,1.80
2018-11-23T07:12:40.190Z,1.80
2018-11-23T07:15:10.187Z,1.80
2018-11-23T07:17:37.903Z,1.80
2018-11-23T07:20:07.293Z,1.80
2018-11-23T07:22:35.688Z,1.90
2018-11-23T07:25:03.695Z,1.80
2018-11-23T07:27:31.081Z,1.80
2018-11-23T07:29:58.529Z,1.90
2018-11-23T07:32:25.987Z,1.90
2018-11-23T07:34:53.493Z,1.80
2018-11-23T07:37:20.872Z,1.50
2018-11-23T07:39:59.977Z,1.70
2018-11-23T07:42:28.860Z,1.70
2018-11-23T07:44:56.306Z,1.80
2018-11-23T07:47:23.707Z,1.70
2018-11-23T07:49:51.194Z,1.60
2018-11-23T07:52:18.621Z,1.70
2018-11-23T07:54:46.056Z,1.70
2018-11-23T07:57:13.509Z,1.80
2018-11-23T07:59:40.943Z,2.00
2018-11-23T08:02:09.479Z,1.80
2018-11-23T08:04:37.680Z,1.90
2018-11-23T08:07:05.831Z,1.80
2018-11-23T08:09:33.248Z,1.70
2018-11-23T08:12:00.638Z,1.80
2018-11-23T08:14:28.092Z,1.80
2018-11-23T08:16:55.500Z,1.80
2018-11-23T08:19:23.017Z,1.90
2018-11-23T08:21:50.464Z,1.90
2018-11-23T08:24:17.973Z,1.90
2018-11-23T08:26:45.371Z,2.00
2018-11-23T08:29:12.811Z,2.00
2018-11-23T08:31:40.256Z,1.80
2018-11-23T08:34:07.853Z,2.00
2018-11-23T08:36:35.305Z,2.00
2018-11-23T08:39:07.529Z,1.90
2018-11-23T08:41:35.023Z,1.90
2018-11-23T08:44:02.674Z,1.90
2018-11-23T08:46:30.104Z,1.80
2018-11-23T08:48:57.563Z,1.80
2018-11-23T08:51:24.999Z,1.90
2018-11-23T08:53:52.398Z,2.20
2018-11-23T08:56:19.903Z,1.90
2018-11-23T08:58:47.312Z,1.90
2018-11-23T09:01:14.748Z,2.10
2018-11-23T09:03:42.152Z,2.10
2018-11-23T09:06:09.590Z,2.10
2018-11-23T09:08:37.119Z,2.10
2018-11-23T09:11:05.188Z,2.20
2018-11-23T09:13:32.591Z,2.30
2018-11-23T09:16:00.040Z,2.40
2018-11-23T09:18:27.455Z,2.20
2018-11-23T09:20:54.900Z,2.50
2018-11-23T09:23:22.473Z,2.30
2018-11-23T09:25:49.916Z,2.20
2018-11-23T09:28:17.323Z,2.40
2018-11-23T09:30:44.774Z,2.60
2018-11-23T09:33:12.155Z,2.40
2018-11-23T09:35:39.635Z,2.40
2018-11-23T09:38:07.128Z,2.40
2018-11-23T09:40:34.563Z,2.50
2018-11-23T09:43:01.957Z,2.50
2018-11-23T09:45:31.061Z,2.60
2018-11-23T09:47:59.913Z,2.60
2018-11-23T09:50:29.155Z,2.60
2018-11-23T09:52:57.882Z,2.60
2018-11-23T09:55:27.317Z,2.70
2018-11-23T09:57:55.269Z,2.60
2018-11-23T10:00:24.009Z,2.70
2018-11-23T10:02:52.537Z,2.60
2018-11-23T10:05:20.451Z,2.60
2018-11-23T10:07:49.396Z,2.60
2018-11-23T10:10:17.828Z,2.50
2018-11-23T10:12:45.250Z,2.40
2018-11-23T10:15:14.221Z,2.60
2018-11-23T10:17:41.843Z,2.70
2018-11-23T10:20:11.692Z,2.60
2018-11-23T10:22:39.145Z,2.60
2018-11-23T10:25:08.050Z,2.50
2018-11-23T10:27:35.528Z,2.60
2018-11-23T10:30:11.051Z,2.70
2018-11-23T10:32:38.492Z,2.90
2018-11-23T10:35:06.904Z,2.60
2018-11-23T10:37:34.344Z,2.60
2018-11-23T10:40:01.794Z,2.50
2018-11-23T10:42:29.244Z,2.60
2018-11-23T10:44:56.642Z,2.60
2018-11-23T10:47:24.173Z,2.40
2018-11-23T10:49:51.581Z,2.60
2018-11-23T10:52:19.143Z,2.60
2018-11-23T10:54:46.597Z,2.60
2018-11-23T10:57:14.043Z,2.60
2018-11-23T10:59:41.425Z,2.80
2018-11-23T11:02:14.559Z,2.90
2018-11-23T11:04:47.667Z,2.70
2018-11-23T11:07:15.135Z,2.50
2018-11-23T11:09:42.535Z,2.50
2018-11-23T11:12:10.070Z,2.50
2018-11-23T11:14:37.483Z,2.60
2018-11-23T11:17:05.064Z,2.60
2018-11-23T11:19:32.584Z,2.70
2018-11-23T11:21:59.991Z,2.70
2018-11-23T11:24:27.424Z,2.70
2018-11-23T11:26:54.824Z,2.80
2018-11-23T11:29:22.294Z,2.80
2018-11-23T11:31:49.679Z,3.00
2018-11-23T11:34:17.143Z,2.70
2018-11-23T11:36:44.723Z,2.90
2018-11-23T11:39:12.855Z,3.10
2018-11-23T11:41:40.459Z,3.00
2018-11-23T11:44:07.888Z,2.90
2018-11-23T11:46:35.286Z,2.70
2018-11-23T11:49:02.760Z,2.90
2018-11-23T11:51:30.238Z,2.80
2018-11-23T11:53:57.647Z,2.80
2018-11-23T11:56:25.107Z,3.00
2018-11-23T11:58:52.513Z,2.90
2018-11-23T12:01:20.816Z,2.90
2018-11-23T12:03:48.263Z,2.80
2018-11-23T12:06:15.648Z,2.90
2018-11-23T12:08:43.132Z,3.00
2018-11-23T12:11:10.528Z,3.10
2018-11-23T12:13:37.980Z,3.10
2018-11-23T12:16:05.405Z,3.10
2018-11-23T12:18:32.806Z,3.00
2018-11-23T12:21:00.364Z,2.90
2018-11-23T12:23:27.808Z,2.90
2018-11-23T12:25:55.269Z,3.10
2018-11-23T12:28:22.695Z,3.00
2018-11-23T12:30:50.091Z,2.90
2018-11-23T12:33:17.564Z,3.10
2018-11-23T12:35:44.992Z,3.10
2018-11-23T12:38:12.492Z,3.10
2018-11-23T12:40:39.994Z,3.00
2018-11-23T12:43:07.439Z,3.10
2018-11-23T12:45:34.887Z,3.20
2018-11-23T12:48:02.363Z,3.10
2018-11-23T12:50:29.837Z,3.10
2018-11-23T12:52:57.224Z,3.00
2018-11-23T12:55:24.683Z,3.00
2018-11-23T12:57:52.101Z,2.80
2018-11-23T13:00:27.384Z,2.80
2018-11-23T13:03:01.272Z,2.80
2018-11-23T13:05:29.676Z,2.80
2018-11-23T13:07:58.495Z,2.70
2018-11-23T13:10:26.495Z,2.80
2018-11-23T13:12:54.770Z,3.10
2018-11-23T13:15:22.343Z,3.10
2018-11-23T13:17:49.814Z,3.00
2018-11-23T13:20:17.235Z,3.10
2018-11-23T13:22:44.815Z,3.00
2018-11-23T13:25:14.583Z,3.00
2018-11-23T13:27:42.036Z,3.10
2018-11-23T13:30:20.694Z,2.90
2018-11-23T13:32:48.426Z,2.90
2018-11-23T13:35:16.917Z,2.90
2018-11-23T13:37:44.397Z,3.20
2018-11-23T13:40:14.068Z,3.20
2018-11-23T13:42:41.649Z,3.00
2018-11-23T13:45:10.978Z,2.80
2018-11-23T13:47:38.464Z,2.80
2018-11-23T13:50:07.791Z,3.00
2018-11-23T13:52:35.245Z,2.90
2018-11-23T13:55:02.952Z,3.00
2018-11-23T13:57:30.333Z,3.00
2018-11-23T13:59:57.768Z,3.10
2018-11-23T14:02:25.180Z,3.10
2018-11-23T14:04:52.628Z,3.10
2018-11-23T14:07:20.291Z,3.00
2018-11-23T14:09:47.745Z,3.00
2018-11-23T14:12:15.196Z,3.20
2018-11-23T14:14:42.705Z,3.00
2018-11-23T14:17:10.112Z,2.70
2018-11-23T14:19:37.567Z,3.00
2018-11-23T14:22:05.246Z,3.10
2018-11-23T14:24:32.716Z,2.90
2018-11-23T14:27:00.264Z,2.90
2018-11-23T14:29:27.723Z,2.90
2018-11-23T14:31:55.112Z,2.90
2018-11-23T14:34:22.551Z,3.00
2018-11-23T14:36:49.988Z,2.90
2018-11-23T14:39:17.442Z,2.90
2018-11-23T14:41:44.862Z,2.90
2018-11-23T14:44:12.325Z,3.00
2018-11-23T14:46:39.804Z,3.00
2018-11-23T14:49:07.277Z,2.80
2018-11-23T14:51:34.732Z,2.90
2018-11-23T14:54:02.205Z,2.90
2018-11-23T14:56:29.628Z,2.90
2018-11-23T14:58:57.094Z,2.90
2018-11-23T15:01:24.897Z,3.10
2018-11-23T15:03:52.415Z,3.00
2018-11-23T15:06:19.855Z,3.10
2018-11-23T15:08:47.328Z,3.00
2018-11-23T15:11:14.761Z,2.80
2018-11-23T15:13:42.243Z,3.00
2018-11-23T15:16:09.651Z,2.90
2018-11-23T15:18:37.064Z,3.00
2018-11-23T15:21:05.167Z,3.00
2018-11-23T15:23:32.588Z,2.80
2018-11-23T15:26:00.050Z,2.80
2018-11-23T15:28:27.521Z,3.00
2018-11-23T15:30:54.962Z,3.00
2018-11-23T15:33:22.424Z,3.00
2018-11-23T15:35:49.816Z,3.10
2018-11-23T15:38:19.168Z,3.00
2018-11-23T15:40:46.734Z,3.00
2018-11-23T15:43:15.251Z,2.90
2018-11-23T15:45:42.711Z,3.00
2018-11-23T15:48:10.649Z,3.00
2018-11-23T15:50:39.160Z,3.10
2018-11-23T15:53:08.161Z,2.90
2018-11-23T15:55:36.361Z,2.90
2018-11-23T15:58:06.150Z,2.90
2018-11-23T16:00:35.958Z,2.90
2018-11-23T16:03:03.877Z,3.00
2018-11-23T16:05:31.317Z,2.80
2018-11-23T16:08:01.400Z,2.80
2018-11-23T16:10:30.355Z,2.80
2018-11-23T16:12:59.009Z,2.70
2018-11-23T16:15:27.051Z,2.70
2018-11-23T16:17:54.873Z,2.80
2018-11-23T16:20:25.034Z,3.00
2018-11-23T16:22:53.933Z,3.00
2018-11-23T16:25:21.447Z,3.00
2018-11-23T16:27:50.457Z,2.80
2018-11-23T16:30:20.226Z,2.90
2018-11-23T16:32:48.878Z,2.90
2018-11-23T16:35:17.866Z,2.90
2018-11-23T16:37:45.450Z,3.00
2018-11-23T16:40:14.294Z,2.90
2018-11-23T16:42:41.801Z,3.20
2018-11-23T16:45:13.128Z,3.00
2018-11-23T16:47:43.197Z,2.90
2018-11-23T16:50:11.109Z,2.70
2018-11-23T16:52:38.928Z,2.70
2018-11-23T16:55:07.903Z,2.90
2018-11-23T16:57:35.318Z,2.90
2018-11-23T17:00:03.120Z,2.80
2018-11-23T17:02:30.699Z,2.80
2018-11-23T17:04:58.196Z,2.80
2018-11-23T17:07:25.655Z,2.90
2018-11-23T17:09:53.108Z,2.90
2018-11-23T17:12:20.501Z,2.90
2018-11-23T17:14:47.989Z,2.90
2018-11-23T17:17:15.496Z,2.90
2018-11-23T17:19:42.967Z,3.00
2018-11-23T17:22:10.432Z,3.20
2018-11-23T17:24:37.842Z,3.10
2018-11-23T17:27:05.505Z,3.00
2018-11-23T17:29:34.041Z,3.00
2018-11-23T17:32:00.700Z,3.00
2018-11-23T17:34:28.143Z,3.00
2018-11-23T17:36:55.550Z,3.00
2018-11-23T17:39:22.994Z,3.00
2018-11-23T17:41:50.557Z,2.90
2018-11-23T17:44:17.961Z,3.00
2018-11-23T17:46:45.434Z,3.10
2018-11-23T17:49:12.842Z,3.00
2018-11-23T17:51:40.294Z,3.00
2018-11-23T17:54:07.703Z,3.10
2018-11-23T17:56:35.448Z,3.10
2018-11-23T17:59:02.951Z,3.10
2018-11-23T18:01:30.497Z,3.00
2018-11-23T18:03:57.905Z,3.00
2018-11-23T18:06:25.354Z,3.10
2018-11-23T18:08:52.784Z,3.10
2018-11-23T18:11:20.241Z,3.10
2018-11-23T18:13:47.819Z,3.10
2018-11-23T18:16:15.241Z,3.10
2018-11-23T18:18:42.702Z,3.20
2018-11-23T18:21:10.244Z,3.10
2018-11-23T18:23:37.704Z,3.00
2018-11-23T18:26:06.183Z,2.90
2018-11-23T18:28:33.616Z,2.90
2018-11-23T18:31:01.054Z,3.00
2018-11-23T18:33:28.446Z,3.00
2018-11-23T18:35:56.057Z,3.00
2018-11-23T18:38:23.502Z,3.10
2018-11-23T18:40:51.104Z,3.00
2018-11-23T18:43:18.627Z,3.00
2018-11-23T18:45:46.079Z,3.00
2018-11-23T18:48:13.500Z,3.00
2018-11-23T18:50:41.007Z,3.00
2018-11-23T18:53:08.447Z,2.90
2018-11-23T18:55:35.880Z,3.00
2018-11-23T18:58:03.507Z,3.10
2018-11-23T19:00:30.901Z,3.50
2018-11-23T19:02:58.350Z,3.20
2018-11-23T19:05:27.543Z,3.20
2018-11-23T19:07:55.047Z,3.20
2018-11-23T19:10:22.539Z,3.20
2018-11-23T19:12:49.977Z,3.20
2018-11-23T19:15:25.261Z,3.30
2018-11-23T19:17:45.595Z,3.30
2018-11-23T19:20:15.942Z,3.40
2018-11-23T19:22:44.607Z,3.20
2018-11-23T19:25:12.055Z,3.10
2018-11-23T19:27:39.442Z,3.00
2018-11-23T19:30:09.492Z,3.10
2018-11-23T19:32:36.935Z,3.10
2018-11-23T19:35:05.028Z,3.10
2018-11-23T19:37:32.556Z,3.00
2018-11-23T19:40:00.036Z,3.00
2018-11-23T19:42:27.593Z,2.90
2018-11-23T19:44:55.152Z,3.00
2018-11-23T19:47:22.617Z,3.10
2018-11-23T19:49:50.010Z,3.10
2018-11-23T19:52:17.463Z,3.10
2018-11-23T19:54:44.847Z,3.20
2018-11-23T19:57:12.328Z,3.10
2018-11-23T19:59:40.639Z,3.20
2018-11-23T20:02:08.054Z,3.10
2018-11-23T20:04:35.530Z,3.20
2018-11-23T20:07:02.981Z,3.20
2018-11-23T20:09:30.384Z,3.20
2018-11-23T20:11:57.876Z,3.30
2018-11-23T20:14:25.379Z,3.20
2018-11-23T20:16:52.903Z,3.30
2018-11-23T20:19:20.401Z,3.20
2018-11-23T20:21:47.855Z,3.10
2018-11-23T20:24:15.267Z,3.20
2018-11-23T20:26:42.773Z,3.00
2018-11-23T20:29:10.236Z,3.00
2018-11-23T20:31:37.736Z,3.10
2018-11-23T20:34:05.316Z,3.10
2018-11-23T20:36:32.811Z,3.10
2018-11-23T20:39:00.224Z,3.10
2018-11-23T20:41:27.702Z,3.20
2018-11-23T20:43:55.108Z,3.10
2018-11-23T20:46:22.556Z,3.10
2018-11-23T20:48:50.682Z,3.40
2018-11-23T20:51:18.167Z,3.20
2018-11-23T20:53:45.636Z,3.20
2018-11-23T20:56:13.092Z,3.10
2018-11-23T20:58:40.525Z,3.00
2018-11-23T21:01:07.977Z,3.00
2018-11-23T21:03:35.489Z,3.10
2018-11-23T21:06:03.016Z,3.20
2018-11-23T21:08:30.424Z,3.40
2018-11-23T21:10:57.893Z,3.30
2018-11-23T21:13:25.455Z,3.20
2018-11-23T21:15:52.909Z,3.20
2018-11-23T21:18:20.331Z,3.30
2018-11-23T21:20:47.936Z,3.30
2018-11-23T21:23:15.585Z,3.30
2018-11-23T21:25:43.041Z,3.20
2018-11-23T21:28:10.512Z,3.30
2018-11-23T21:30:39.708Z,3.40
2018-11-23T21:33:07.192Z,3.30
2018-11-23T21:35:34.729Z,3.40
2018-11-23T21:38:02.180Z,3.20
2018-11-23T21:40:29.800Z,3.20
2018-11-23T21:42:57.501Z,3.10
2018-11-23T21:45:25.004Z,3.20
2018-11-23T21:47:52.436Z,3.30
2018-11-23T21:50:25.111Z,3.30
2018-11-23T21:52:47.991Z,3.30
2018-11-23T21:55:16.651Z,3.20
2018-11-23T21:57:44.131Z,3.30
2018-11-23T22:00:13.243Z,3.40
2018-11-23T22:02:40.728Z,3.30
2018-11-23T22:05:08.508Z,3.30
2018-11-23T22:07:36.114Z,3.30
2018-11-23T22:10:07.080Z,3.20
2018-11-23T22:12:34.585Z,3.20
2018-11-23T22:15:01.998Z,3.20
2018-11-23T22:17:29.481Z,3.00
2018-11-23T22:19:56.899Z,3.10
2018-11-23T22:22:24.385Z,3.20
2018-11-23T22:24:51.889Z,3.30
2018-11-23T22:27:19.375Z,3.30
2018-11-23T22:29:46.813Z,3.30
2018-11-23T22:32:14.344Z,3.30
2018-11-23T22:34:41.796Z,3.30
2018-11-23T22:37:09.199Z,3.20
2018-11-23T22:39:36.641Z,3.30
2018-11-23T22:42:04.835Z,3.60
2018-11-23T22:44:32.287Z,3.50
2018-11-23T22:46:59.814Z,3.60
2018-11-23T22:49:27.267Z,3.50
2018-11-23T22:51:54.689Z,3.60
2018-11-23T22:54:22.140Z,3.60
2018-11-23T22:56:49.652Z,3.50
2018-11-23T22:59:17.372Z,3.50
2018-11-23T23:01:44.851Z,3.40
2018-11-23T23:04:12.331Z,3.30
2018-11-23T23:06:39.815Z,3.70
2018-11-23T23:09:08.523Z,3.60
2018-11-23T23:11:36.560Z,3.50
2018-11-23T23:14:04.132Z,3.40
2018-11-23T23:16:31.561Z,3.50
2018-11-23T23:18:59.185Z,3.60
2018-11-23T23:21:26.633Z,3.60
2018-11-23T23:23:54.250Z,3.40
2018-11-23T23:26:21.655Z,3.40
2018-11-23T23:28:49.117Z,3.30
2018-11-23T23:31:16.609Z,3.30
2018-11-23T23:33:44.032Z,3.30
2018-11-23T23:36:11.477Z,3.60
2018-11-23T23:38:39.015Z,3.50
2018-11-23T23:41:06.478Z,3.50
2018-11-23T23:43:33.920Z,3.50
2018-11-23T23:46:01.352Z,3.50
2018-11-23T23:48:29.383Z,3.30
2018-11-23T23:50:56.912Z,3.30
2018-11-23T23:53:24.327Z,3.20
2018-11-23T23:55:51.769Z,3.40
2018-11-23T23:58:19.175Z,3.30
